Time;durP1;ratioP1;P1;durP2;ratioP2;P2;SDS_P1;SDS_P2;PMS_P1;PMS_P2;Temp;Humidity;BMP_temperature;BMP_pressure;BME280_temperature;BME280_humidity;BME280_pressure;Samples;Min_cycle;Max_cycle;Signal;HPM_P1;HPM_P2
2023/01/14 00:02:12;;;;;;;14.70;8.10;;;;;;;5.29;88.85;98506.98;105344;1266;97984;-66
2023/01/14 00:04:41;;;;;;;13.40;7.50;;;;;;;5.28;88.76;98512.47;105342;1257;97889;-66
2023/01/14 00:07:08;;;;;;;11.70;7.20;;;;;;;5.27;88.89;98508.02;105337;1255;111173;-65
2023/01/14 00:09:35;;;;;;;13.90;7.00;;;;;;;5.29;89.06;98500.89;105343;1256;97986;-66
2023/01/14 00:12:04;;;;;;;12.50;7.40;;;;;;;5.30;88.78;98510.39;105309;1257;99242;-65
2023/01/14 00:14:33;;;;;;;7.80;5.50;;;;;;;5.31;89.03;98512.40;105432;1265;97968;-66
2023/01/14 00:17:01;;;;;;;8.80;5.70;;;;;;;5.32;88.99;98516.57;105318;1257;98275;-65
2023/01/14 00:19:28;;;;;;;12.60;7.00;;;;;;;5.32;88.88;98523.09;105361;1252;111450;-65
2023/01/14 00:21:56;;;;;;;6.70;3.90;;;;;;;5.30;88.91;98515.05;105345;1257;98260;-65
2023/01/14 00:24:24;;;;;;;17.20;7.90;;;;;;;5.26;89.05;98506.23;105390;1264;107694;-65
2023/01/14 00:26:54;;;;;;;10.60;5.60;;;;;;;5.21;89.17;98501.32;105354;1256;98610;-65
2023/01/14 00:29:26;;;;;;;13.20;7.00;;;;;;;5.18;89.18;98498.63;105161;1257;99159;-65
2023/01/14 00:31:59;;;;;;;10.10;7.20;;;;;;;5.17;89.40;98504.66;105224;1264;111656;-66
2023/01/14 00:34:28;;;;;;;12.40;7.90;;;;;;;5.16;89.26;98512.15;105320;1264;99083;-67
2023/01/14 00:36:55;;;;;;;12.50;7.80;;;;;;;5.15;88.87;98524.55;105368;1257;108565;-65
2023/01/14 00:39:24;;;;;;;16.70;9.40;;;;;;;5.13;88.85;98530.75;105305;1264;97894;-65
2023/01/14 00:41:51;;;;;;;15.90;9.10;;;;;;;5.13;89.19;98534.29;105381;1264;98398;-65
2023/01/14 00:44:19;;;;;;;11.40;6.60;;;;;;;5.11;88.74;98532.23;105320;1251;97943;-67
2023/01/14 00:46:47;;;;;;;11.60;6.70;;;;;;;5.08;89.12;98534.20;105300;1260;98232;-65
2023/01/14 00:49:22;;;;;;;16.00;7.20;;;;;;;5.05;89.18;98535.92;105252;1254;108546;-65
2023/01/14 00:51:50;;;;;;;11.00;7.20;;;;;;;5.00;89.11;98537.84;105319;1257;97972;-65
2023/01/14 00:54:18;;;;;;;10.10;6.50;;;;;;;4.94;89.33;98536.56;105357;1264;97885;-65
2023/01/14 00:56:47;;;;;;;12.70;8.10;;;;;;;4.91;89.32;98541.47;105334;1257;110975;-65
2023/01/14 00:59:25;;;;;;;13.70;8.50;;;;;;;4.88;89.51;98539.64;105317;1257;98788;-65
2023/01/14 01:01:54;;;;;;;14.70;8.90;;;;;;;4.87;89.36;98539.96;105344;1271;107628;-65
2023/01/14 01:04:24;;;;;;;13.60;8.00;;;;;;;4.85;89.40;98543.88;105367;1265;99190;-66
2023/01/14 01:06:55;;;;;;;11.80;6.90;;;;;;;4.83;89.89;98547.36;105320;1265;98345;-65
2023/01/14 01:09:23;;;;;;;11.30;7.30;;;;;;;4.86;89.42;98552.89;105241;1257;111204;-65
2023/01/14 01:11:50;;;;;;;11.20;7.40;;;;;;;4.87;89.31;98554.09;105271;1265;97911;-65
2023/01/14 01:14:17;;;;;;;11.40;7.50;;;;;;;4.89;89.36;98562.44;105307;1267;99213;-67
2023/01/14 01:16:44;;;;;;;12.40;7.00;;;;;;;4.91;89.51;98565.42;105264;1266;97994;-65
2023/01/14 01:19:11;;;;;;;12.70;7.70;;;;;;;4.91;90.01;98562.27;105302;1264;97938;-65
2023/01/14 01:21:38;;;;;;;9.30;5.50;;;;;;;4.92;89.38;98554.23;105261;1260;98422;-66
2023/01/14 01:24:05;;;;;;;9.00;6.40;;;;;;;4.90;89.51;98546.36;105324;1256;97902;-66
2023/01/14 01:26:32;;;;;;;12.40;7.00;;;;;;;4.88;89.44;98545.49;105329;1264;99179;-65
2023/01/14 01:28:59;;;;;;;14.10;7.30;;;;;;;4.87;89.26;98554.19;105378;1264;99198;-65
2023/01/14 01:31:28;;;;;;;11.00;6.10;;;;;;;4.87;89.27;98553.98;105242;1264;113506;-65
2023/01/14 01:33:56;;;;;;;11.10;6.70;;;;;;;4.88;89.45;98545.34;105348;1256;99196;-65
2023/01/14 01:36:26;;;;;;;11.60;7.20;;;;;;;4.88;88.96;98551.20;105292;1257;107621;-65
2023/01/14 01:38:54;;;;;;;11.90;6.60;;;;;;;4.88;88.90;98549.73;105305;1264;99296;-65
2023/01/14 01:41:25;;;;;;;11.40;6.90;;;;;;;4.88;89.12;98550.17;105318;1266;98046;-65
2023/01/14 01:44:15;;;;;;;16.70;8.30;;;;;;;4.87;88.81;98551.63;105300;1257;112185;-64
2023/01/14 01:46:42;;;;;;;16.10;8.30;;;;;;;4.84;88.85;98556.64;104999;1264;98566;-64
2023/01/14 01:49:12;;;;;;;10.40;6.10;;;;;;;4.79;88.43;98558.63;105312;1265;97965;-64
2023/01/14 01:51:50;;;;;;;14.30;8.30;;;;;;;4.75;88.91;98565.92;105118;1274;98394;-65
2023/01/14 01:54:23;;;;;;;13.60;8.20;;;;;;;4.71;88.83;98573.05;105201;1264;99109;-64
2023/01/14 01:56:52;;;;;;;13.50;8.60;;;;;;;4.70;88.54;98575.44;105335;1265;111490;-66
2023/01/14 01:59:25;;;;;;;12.00;7.70;;;;;;;4.71;88.92;98577.45;105370;1260;99223;-63
2023/01/14 02:01:55;;;;;;;12.10;7.70;;;;;;;4.72;88.45;98585.27;105309;1257;108582;-63
2023/01/14 02:04:23;;;;;;;12.80;7.00;;;;;;;4.73;88.47;98587.70;105324;1260;97855;-64
2023/01/14 02:06:50;;;;;;;8.80;5.50;;;;;;;4.75;88.34;98587.80;105352;1265;98420;-63
2023/01/14 02:09:18;;;;;;;7.40;4.60;;;;;;;4.77;88.74;98582.75;105295;1264;97969;-63
2023/01/14 02:12:12;;;;;;;9.00;5.30;;;;;;;4.77;88.17;98588.66;105351;1255;99095;-64
2023/01/14 02:15:14;;;;;;;10.60;6.50;;;;;;;4.76;88.50;98589.54;105314;1257;108174;-64
2023/01/14 02:17:51;;;;;;;6.60;4.10;;;;;;;4.72;88.74;98578.48;105347;1265;97904;-64
2023/01/14 02:20:46;;;;;;;10.40;6.10;;;;;;;4.67;88.96;98573.81;105328;1254;98381;-65
2023/01/14 02:24:04;;;;;;;8.80;4.50;;;;;;;4.64;88.98;98574.80;105344;1265;110332;-65
2023/01/14 02:26:34;;;;;;;9.70;6.00;;;;;;;4.64;88.80;98582.52;104923;1265;98930;-64
2023/01/14 02:29:43;;;;;;;7.30;4.70;;;;;;;4.62;88.82;98591.80;105302;1256;108181;-65
2023/01/14 02:32:29;;;;;;;9.70;5.90;;;;;;;4.64;88.61;98598.85;105267;1254;97934;-65
2023/01/14 02:35:37;;;;;;;8.40;4.80;;;;;;;4.65;88.73;98604.50;105346;1257;98430;-65
2023/01/14 02:38:16;;;;;;;7.00;3.70;;;;;;;4.68;88.96;98603.63;105337;1264;112193;-65
2023/01/14 02:40:53;;;;;;;6.90;4.20;;;;;;;4.67;88.74;98608.41;105381;1254;98827;-65
2023/01/14 02:46:21;;;;;;;9.20;5.20;;;;;;;4.64;89.11;98610.20;105298;1257;97912;-65
2023/01/14 02:48:51;;;;;;;9.90;5.70;;;;;;;4.62;88.87;98615.52;105388;1264;98224;-65
2023/01/14 02:51:20;;;;;;;12.60;6.70;;;;;;;4.61;89.16;98615.47;105342;1257;111075;-65
2023/01/14 02:53:47;;;;;;;10.50;6.60;;;;;;;4.60;88.57;98616.34;105337;1266;97982;-64
2023/01/14 02:56:15;;;;;;;11.50;6.50;;;;;;;4.58;88.90;98616.07;105276;1260;97946;-64
2023/01/14 02:59:03;;;;;;;9.40;5.90;;;;;;;4.56;88.80;98617.05;105357;1254;97905;-65
2023/01/14 03:01:45;;;;;;;9.90;6.10;;;;;;;4.54;88.56;98620.21;105278;1251;97987;-65
2023/01/14 03:04:27;;;;;;;12.80;6.70;;;;;;;4.49;88.86;98621.02;105328;1264;111162;-65
2023/01/14 03:07:09;;;;;;;8.20;5.40;;;;;;;4.45;88.78;98619.09;105342;1256;100458;-65
2023/01/14 03:10:15;;;;;;;8.30;4.80;;;;;;;4.39;88.96;98618.49;105298;1255;108267;-65
2023/01/14 03:12:48;;;;;;;8.40;4.90;;;;;;;4.33;89.39;98622.89;105145;1254;97935;-65
2023/01/14 03:15:33;;;;;;;8.90;5.60;;;;;;;4.28;89.25;98621.66;105311;1265;98474;-67
2023/01/14 03:18:11;;;;;;;10.00;6.00;;;;;;;4.23;89.54;98622.91;105303;1255;112243;-69
2023/01/14 03:20:43;;;;;;;8.90;5.60;;;;;;;4.22;89.52;98625.30;105365;1265;99144;-67
2023/01/14 03:23:17;;;;;;;9.10;6.00;;;;;;;4.20;89.53;98625.09;105342;1254;106671;-67
2023/01/14 03:25:47;;;;;;;10.20;6.10;;;;;;;4.20;89.38;98623.89;105311;1255;99109;-67
2023/01/14 03:28:20;;;;;;;9.80;5.80;;;;;;;4.20;89.45;98626.18;105353;1255;98705;-67
2023/01/14 03:30:58;;;;;;;7.90;5.40;;;;;;;4.20;89.58;98630.52;105325;1265;111877;-66
2023/01/14 03:33:34;;;;;;;8.90;5.20;;;;;;;4.21;89.50;98628.89;105310;1265;99507;-67
2023/01/14 03:36:04;;;;;;;9.00;5.40;;;;;;;4.22;89.34;98632.90;105335;1264;105646;-68
2023/01/14 03:38:48;;;;;;;7.80;5.10;;;;;;;4.20;89.21;98630.67;105329;1251;97919;-66
2023/01/14 03:42:17;;;;;;;9.30;4.90;;;;;;;4.18;89.22;98639.85;105299;1254;98216;-67
2023/01/14 03:44:16;;;;;;;9.40;5.80;;;;;;;4.14;89.35;98647.11;105308;1254;111900;-67
2023/01/14 03:46:44;;;;;;;7.50;5.50;;;;;;;4.09;89.30;98648.80;105357;1255;98534;-66
2023/01/14 03:49:11;;;;;;;9.70;5.70;;;;;;;4.03;89.26;98651.17;105292;1266;97893;-67
2023/01/14 03:51:49;;;;;;;9.10;6.00;;;;;;;3.99;89.60;98649.27;105201;1261;97921;-68
2023/01/14 03:54:56;;;;;;;11.30;6.30;;;;;;;3.96;89.29;98648.84;105330;1254;98274;-67
2023/01/14 03:57:33;;;;;;;11.00;6.30;;;;;;;3.95;89.46;98650.63;105325;1265;112243;-66
2023/01/14 04:00:17;;;;;;;11.40;6.10;;;;;;;3.95;89.36;98653.34;105341;1273;97902;-67
2023/01/14 04:02:51;;;;;;;10.20;5.70;;;;;;;3.97;89.38;98653.40;105314;1273;107134;-66
2023/01/14 04:05:20;;;;;;;12.50;6.20;;;;;;;3.99;89.66;98658.39;105333;1257;98804;-66
2023/01/14 04:08:00;;;;;;;12.30;6.60;;;;;;;4.02;89.72;98658.28;105345;1264;98787;-66
2023/01/14 04:10:27;;;;;;;11.50;5.30;;;;;;;4.06;89.69;98664.24;105317;1264;111297;-66
2023/01/14 04:15:40;;;;;;;10.50;5.00;;;;;;;4.13;89.43;98668.27;105311;1251;108394;-66
2023/01/14 04:18:08;;;;;;;7.50;4.60;;;;;;;4.13;89.46;98671.63;105339;1257;97999;-66
2023/01/14 04:20:35;;;;;;;9.70;5.10;;;;;;;4.12;89.31;98675.42;105265;1265;97976;-66
2023/01/14 04:23:02;;;;;;;9.20;5.40;;;;;;;4.09;89.19;98671.30;105339;1254;98010;-66
2023/01/14 04:25:29;;;;;;;13.70;7.10;;;;;;;4.06;89.37;98676.39;105311;1254;98585;-66
2023/01/14 04:27:56;;;;;;;8.70;5.00;;;;;;;4.03;89.29;98674.77;105290;1264;97994;-66
2023/01/14 04:30:23;;;;;;;7.00;4.00;;;;;;;4.01;89.12;98673.35;105268;1254;99294;-66
2023/01/14 04:32:50;;;;;;;7.80;4.90;;;;;;;3.99;89.18;98670.55;105274;1254;97909;-66
2023/01/14 04:35:17;;;;;;;10.10;4.70;;;;;;;3.97;89.19;98667.83;105168;1254;99761;-66
2023/01/14 04:37:44;;;;;;;11.70;4.80;;;;;;;3.96;88.94;98680.29;105272;1267;108615;-71
2023/01/14 04:40:12;;;;;;;7.50;4.40;;;;;;;3.95;88.95;98686.05;105044;1264;98003;-67
2023/01/14 04:42:38;;;;;;;8.10;4.60;;;;;;;3.93;88.94;98685.06;105025;1250;422610;-67
2023/01/14 04:45:07;;;;;;;8.00;4.90;;;;;;;3.91;89.14;98688.32;105271;1254;97960;-67
2023/01/14 04:47:34;;;;;;;9.10;4.90;;;;;;;3.89;88.93;98691.56;105286;1264;99445;-67
2023/01/14 04:50:30;;;;;;;11.30;5.70;;;;;;;3.87;88.90;98690.85;105337;1251;98024;-67
2023/01/14 04:52:51;;;;;;;9.80;5.80;;;;;;;3.84;88.95;98699.85;105319;1254;97975;-67
2023/01/14 04:55:18;;;;;;;8.60;5.30;;;;;;;3.80;88.97;98697.83;105263;1258;98401;-67
2023/01/14 04:57:45;;;;;;;9.60;4.40;;;;;;;3.76;89.10;98700.70;105371;1254;112386;-67
2023/01/14 05:00:14;;;;;;;6.80;4.20;;;;;;;3.71;89.30;98699.44;105303;1254;99188;-67
2023/01/14 05:02:40;;;;;;;6.50;3.50;;;;;;;3.65;89.37;98699.27;105350;1255;107296;-65
2023/01/14 05:05:08;;;;;;;6.90;4.00;;;;;;;3.60;89.39;98702.72;105314;1256;98794;-65
2023/01/14 05:07:35;;;;;;;8.90;4.80;;;;;;;3.55;89.48;98697.71;105365;1251;99085;-65
2023/01/14 05:10:03;;;;;;;12.00;5.40;;;;;;;3.51;89.65;98699.05;105277;1254;97892;-65
2023/01/14 05:12:30;;;;;;;6.50;4.10;;;;;;;3.48;89.62;98703.65;105376;1265;99197;-66
2023/01/14 05:14:56;;;;;;;7.40;4.90;;;;;;;3.47;89.85;98706.36;105306;1254;97966;-66
2023/01/14 05:17:23;;;;;;;9.50;5.10;;;;;;;3.49;89.99;98710.20;105213;1257;97889;-66
2023/01/14 05:19:50;;;;;;;6.10;3.30;;;;;;;3.50;90.26;98711.56;105391;1254;99188;-65
2023/01/14 05:22:18;;;;;;;7.10;4.60;;;;;;;3.54;90.25;98710.27;105311;1254;98024;-66
2023/01/14 05:24:45;;;;;;;8.60;4.70;;;;;;;3.58;90.22;98716.15;105347;1257;99226;-66
2023/01/14 05:27:12;;;;;;;6.60;4.00;;;;;;;3.62;90.39;98720.99;105299;1267;97898;-66
2023/01/14 05:29:39;;;;;;;6.30;3.90;;;;;;;3.68;90.09;98724.91;105355;1257;98452;-66
2023/01/14 05:32:06;;;;;;;7.80;4.30;;;;;;;3.73;90.08;98729.04;105366;1263;99077;-66
2023/01/14 05:34:33;;;;;;;7.60;4.90;;;;;;;3.78;89.96;98733.66;105363;1264;97924;-66
2023/01/14 05:37:00;;;;;;;5.70;3.90;;;;;;;3.81;89.85;98740.67;105243;1254;99188;-66
2023/01/14 05:39:27;;;;;;;5.70;3.60;;;;;;;3.84;89.76;98741.60;105308;1266;98005;-66
2023/01/14 05:47:25;;;;;;;314.00;146.70;;;;;;;3.86;89.70;98747.84;105314;1265;99250;-66
2023/01/14 05:49:52;;;;;;;482.80;210.50;;;;;;;3.85;89.76;98753.33;105301;1257;97905;-66
2023/01/14 05:52:19;;;;;;;182.90;46.90;;;;;;;3.84;89.91;98754.61;105324;1254;99210;-67
2023/01/14 05:54:45;;;;;;;252.80;46.80;;;;;;;3.83;89.91;98754.23;105205;1254;97968;-66
2023/01/14 05:57:14;;;;;;;252.60;49.10;;;;;;;3.83;89.80;98753.10;105204;1260;97886;-66
2023/01/14 05:59:41;;;;;;;255.30;49.10;;;;;;;3.85;89.58;98750.48;105352;1265;99247;-68
2023/01/14 06:07:40;;;;;;;139.70;30.70;;;;;;;3.93;89.28;98761.52;105300;1255;99098;-67
2023/01/14 06:10:08;;;;;;;192.70;40.20;;;;;;;3.96;89.17;98757.56;105288;1254;97965;-67
2023/01/14 06:15:21;;;;;;;155.70;32.60;;;;;;;3.95;89.10;98764.89;105266;1255;108548;-67
2023/01/14 06:17:58;;;;;;;93.70;21.90;;;;;;;3.94;88.85;98765.44;105306;1254;98819;-67
2023/01/14 06:20:25;;;;;;;137.10;30.20;;;;;;;3.92;88.92;98762.61;105371;1254;99076;-67
2023/01/14 06:22:55;;;;;;;112.10;25.60;;;;;;;3.91;88.91;98757.95;105297;1257;97951;-68
2023/01/14 06:25:22;;;;;;;85.10;20.30;;;;;;;3.87;88.91;98753.48;105345;1254;99243;-67
2023/01/14 06:27:49;;;;;;;60.30;14.80;;;;;;;3.80;88.89;98758.11;105277;1265;99194;-67
2023/01/14 06:30:17;;;;;;;82.50;20.80;;;;;;;3.73;89.24;98764.88;105320;1251;99197;-67
2023/01/14 06:32:45;;;;;;;108.20;27.10;;;;;;;3.67;89.50;98768.27;105362;1251;97978;-67
2023/01/14 06:35:12;;;;;;;104.50;27.40;;;;;;;3.61;89.41;98768.42;105343;1255;111247;-67
2023/01/14 06:37:43;;;;;;;62.50;14.40;;;;;;;3.59;89.50;98772.85;105248;1264;97936;-67
2023/01/14 06:40:12;;;;;;;58.00;15.40;;;;;;;3.55;89.82;98776.35;105330;1260;107608;-67
2023/01/14 06:42:40;;;;;;;96.50;24.10;;;;;;;3.54;89.52;98779.98;105249;1267;99080;-67
2023/01/14 06:45:08;;;;;;;108.70;27.10;;;;;;;3.54;89.51;98777.32;105328;1251;98410;-67
2023/01/14 06:47:36;;;;;;;100.00;23.60;;;;;;;3.54;89.50;98776.72;105310;1257;112144;-67
2023/01/14 06:50:06;;;;;;;102.70;28.20;;;;;;;3.55;89.45;98777.38;105326;1254;99250;-67
2023/01/14 06:52:33;;;;;;;77.00;21.10;;;;;;;3.55;89.44;98780.80;105294;1258;109778;-67
2023/01/14 06:55:00;;;;;;;59.20;16.60;;;;;;;3.55;89.30;98786.75;105288;1263;97926;-67
2023/01/14 06:57:28;;;;;;;56.00;15.50;;;;;;;3.57;89.20;98789.48;105300;1251;97882;-67
2023/01/14 06:59:57;;;;;;;81.30;20.90;;;;;;;3.58;89.17;98789.10;105219;1254;112240;-67
2023/01/14 07:02:24;;;;;;;58.30;17.60;;;;;;;3.59;89.26;98793.77;105178;1267;97934;-67
2023/01/14 07:04:52;;;;;;;58.10;17.00;;;;;;;3.60;89.26;98795.94;105279;1254;99159;-67
2023/01/14 07:07:19;;;;;;;17.50;6.40;;;;;;;3.59;89.40;98795.77;105322;1255;97988;-67
2023/01/14 07:09:46;;;;;;;47.60;14.00;;;;;;;3.58;89.45;98798.20;105210;1250;97972;-67
2023/01/14 07:12:13;;;;;;;29.90;12.20;;;;;;;3.58;89.55;98799.77;105304;1254;97938;-67
2023/01/14 07:14:40;;;;;;;49.70;15.50;;;;;;;3.57;89.40;98799.83;105274;1254;98666;-67
2023/01/14 07:17:09;;;;;;;37.30;15.10;;;;;;;3.57;89.40;98804.44;105192;1274;98929;-67
2023/01/14 07:19:36;;;;;;;52.80;16.00;;;;;;;3.58;89.53;98808.73;105191;1251;97972;-67
2023/01/14 07:22:05;;;;;;;31.10;10.40;;;;;;;3.60;89.40;98806.23;105337;1250;98797;-68
2023/01/14 07:24:32;;;;;;;45.50;13.50;;;;;;;3.63;89.50;98805.83;104950;1260;110657;-69
2023/01/14 07:26:59;;;;;;;25.10;8.60;;;;;;;3.67;89.39;98804.33;105070;1257;97895;-66
2023/01/14 07:29:26;;;;;;;19.90;7.40;;;;;;;3.71;89.23;98803.96;105254;1265;99251;-66
2023/01/14 07:31:54;;;;;;;35.40;11.60;;;;;;;3.77;89.28;98805.17;105190;1275;97982;-66
2023/01/14 07:34:21;;;;;;;17.50;6.10;;;;;;;3.81;89.19;98804.27;105213;1254;97934;-66
2023/01/14 07:36:48;;;;;;;21.10;7.80;;;;;;;3.85;89.01;98805.09;105149;1257;97909;-65
2023/01/14 07:39:16;;;;;;;20.00;7.00;;;;;;;3.88;88.88;98806.84;105244;1260;98582;-65
2023/01/14 07:41:43;;;;;;;31.30;10.50;;;;;;;3.93;88.55;98810.50;105256;1257;97916;-65
2023/01/14 07:44:10;;;;;;;25.10;8.80;;;;;;;3.96;88.38;98817.67;105279;1257;97880;-65
2023/01/14 07:46:38;;;;;;;39.50;12.70;;;;;;;3.97;88.25;98814.14;105312;1251;98425;-65
2023/01/14 07:49:10;;;;;;;40.30;12.30;;;;;;;3.96;88.26;98820.70;105256;1257;111798;-66
2023/01/14 07:51:37;;;;;;;18.30;6.80;;;;;;;3.93;88.48;98817.39;105225;1258;97940;-66
2023/01/14 07:54:04;;;;;;;27.80;9.10;;;;;;;3.92;88.39;98823.11;105254;1252;98036;-66
2023/01/14 07:56:31;;;;;;;37.00;12.20;;;;;;;3.91;88.24;98830.02;105179;1265;97894;-66
2023/01/14 07:58:58;;;;;;;24.90;9.50;;;;;;;3.90;88.20;98835.64;105303;1254;97913;-66
2023/01/14 08:01:26;;;;;;;33.50;10.60;;;;;;;3.92;88.25;98836.04;105308;1256;97982;-66
2023/01/14 08:03:53;;;;;;;44.10;12.10;;;;;;;3.94;87.97;98837.84;105263;1254;98798;-66
2023/01/14 08:06:20;;;;;;;14.10;5.80;;;;;;;4.00;88.04;98838.67;105219;1274;98804;-66
2023/01/14 08:08:47;;;;;;;32.00;11.60;;;;;;;4.14;88.14;98837.41;105281;1264;97914;-66
2023/01/14 08:11:15;;;;;;;20.90;8.00;;;;;;;4.33;87.81;98840.06;105214;1257;99204;-66
2023/01/14 08:13:43;;;;;;;26.00;8.60;;;;;;;4.54;86.78;98838.27;105247;1264;97949;-66
2023/01/14 08:16:13;;;;;;;25.90;9.30;;;;;;;4.72;86.35;98841.11;105247;1251;98285;-66
2023/01/14 08:18:40;;;;;;;40.30;12.50;;;;;;;4.90;86.27;98839.80;105239;1257;107842;-66
2023/01/14 08:21:10;;;;;;;18.90;7.60;;;;;;;5.07;85.85;98842.09;105295;1253;97975;-66
2023/01/14 08:23:37;;;;;;;21.40;7.70;;;;;;;5.24;85.03;98843.91;105318;1257;97905;-66
2023/01/14 08:26:07;;;;;;;25.50;9.50;;;;;;;5.41;84.43;98848.95;105303;1258;97896;-66
2023/01/14 08:28:36;;;;;;;26.10;9.40;;;;;;;5.58;84.37;98847.38;105223;1251;97900;-66
2023/01/14 08:31:11;;;;;;;10.90;5.10;;;;;;;5.75;84.19;98852.99;105075;1257;106521;-66
2023/01/14 08:33:41;;;;;;;16.70;6.90;;;;;;;5.89;83.12;98852.58;105116;1275;98918;-67
2023/01/14 08:36:12;;;;;;;19.00;6.80;;;;;;;5.95;82.13;98851.02;105267;1257;99770;-70
2023/01/14 08:38:42;;;;;;;12.40;4.60;;;;;;;6.01;82.07;98858.02;105243;1272;111157;-69
2023/01/14 08:41:11;;;;;;;19.40;7.10;;;;;;;6.11;81.56;98857.63;105335;1256;99260;-67
2023/01/14 08:43:40;;;;;;;10.30;5.30;;;;;;;6.31;82.53;98863.47;105314;1256;107576;-67
2023/01/14 08:46:09;;;;;;;12.80;5.90;;;;;;;6.55;82.19;98867.25;105337;1256;97908;-67
2023/01/14 08:48:37;;;;;;;15.80;7.00;;;;;;;6.79;81.04;98856.80;105341;1258;99205;-68
2023/01/14 08:51:10;;;;;;;17.80;7.20;;;;;;;7.01;81.26;98862.96;105293;1254;112256;-68
2023/01/14 08:53:38;;;;;;;15.60;5.90;;;;;;;7.18;79.42;98872.58;105280;1266;98840;-68
2023/01/14 08:56:09;;;;;;;20.40;7.90;;;;;;;7.34;79.72;98876.46;105364;1254;109618;-68
2023/01/14 08:58:37;;;;;;;18.20;7.40;;;;;;;7.50;78.42;98873.20;105336;1257;97969;-67
2023/01/14 09:01:07;;;;;;;17.30;7.40;;;;;;;7.65;78.40;98869.94;105385;1254;98391;-68
2023/01/14 09:03:36;;;;;;;23.80;8.90;;;;;;;7.74;77.75;98868.33;105356;1266;111371;-67
2023/01/14 09:06:10;;;;;;;14.10;6.00;;;;;;;7.76;77.22;98870.92;105299;1254;98238;-68
2023/01/14 09:17:20;;;;;;;15.80;7.40;;;;;;;8.19;76.58;98888.23;105322;1257;111664;-67
2023/01/14 09:19:58;;;;;;;27.10;11.20;;;;;;;8.31;76.11;98890.76;105337;1266;98082;-68
2023/01/14 09:22:29;;;;;;;17.30;6.30;;;;;;;8.42;76.28;98885.80;105271;1254;108624;-68
2023/01/14 09:24:57;;;;;;;12.70;6.00;;;;;;;8.53;74.86;98886.83;105350;1263;97889;-67
2023/01/14 09:27:27;;;;;;;12.80;5.60;;;;;;;8.59;73.85;98883.53;105225;1251;98071;-68
2023/01/14 09:29:55;;;;;;;15.00;7.10;;;;;;;8.69;73.45;98884.23;105309;1255;111143;-68
2023/01/14 09:32:23;;;;;;;18.00;7.70;;;;;;;8.64;71.72;98876.63;105337;1254;98457;-68
2023/01/14 09:34:52;;;;;;;18.50;8.60;;;;;;;8.58;72.25;98877.86;105296;1255;99233;-68
2023/01/14 09:37:23;;;;;;;13.60;6.00;;;;;;;8.61;72.74;98877.75;105276;1264;97873;-67
2023/01/14 09:39:50;;;;;;;10.00;4.80;;;;;;;8.54;71.91;98879.10;105358;1254;98708;-68
2023/01/14 09:42:46;;;;;;;15.80;8.80;;;;;;;8.50;72.89;98881.16;105380;1254;111251;-68
2023/01/14 09:45:15;;;;;;;17.70;7.80;;;;;;;8.45;73.07;98883.58;105266;1254;98109;-67
2023/01/14 09:47:44;;;;;;;19.40;8.20;;;;;;;8.48;73.13;98882.67;105307;1251;107558;-68
2023/01/14 09:50:49;;;;;;;14.80;6.40;;;;;;;8.50;72.98;98881.38;105315;1254;97889;-68
2023/01/14 09:53:44;;;;;;;8.60;3.80;;;;;;;8.44;72.07;98879.77;104503;1264;98012;-68
2023/01/14 09:56:30;;;;;;;7.60;4.20;;;;;;;8.40;71.91;98882.34;104433;1274;111268;-68
2023/01/14 09:59:23;;;;;;;11.20;5.40;;;;;;;8.37;71.48;98880.95;104522;1275;98291;-71
2023/01/14 10:02:03;;;;;;;13.80;6.50;;;;;;;8.32;71.98;98879.86;104536;1264;108708;-67
2023/01/14 10:04:52;;;;;;;11.60;5.50;;;;;;;8.37;71.21;98874.52;104622;1260;98084;-67
2023/01/14 10:07:21;;;;;;;10.60;5.30;;;;;;;8.66;71.67;98869.92;104614;1259;98259;-67
2023/01/14 10:09:54;;;;;;;13.30;6.10;;;;;;;9.11;70.41;98866.89;104591;1263;111815;-67
2023/01/14 10:12:38;;;;;;;16.60;7.30;;;;;;;9.57;69.84;98864.90;104609;1264;99242;-67
2023/01/14 10:15:14;;;;;;;12.60;6.10;;;;;;;10.06;68.65;98861.30;104611;1266;108719;-67
2023/01/14 10:17:47;;;;;;;14.40;6.40;;;;;;;10.44;67.42;98858.98;104606;1264;99188;-67
2023/01/14 10:20:25;;;;;;;12.10;6.50;;;;;;;10.73;65.99;98858.05;104630;1260;98595;-67
2023/01/14 10:23:10;;;;;;;15.20;7.30;;;;;;;11.08;65.33;98863.67;104605;1263;112074;-67
2023/01/14 10:25:40;;;;;;;12.20;6.10;;;;;;;11.45;65.01;98866.80;104631;1264;100429;-67
2023/01/14 10:28:13;;;;;;;11.40;5.10;;;;;;;11.74;63.45;98866.48;104624;1274;106796;-67
2023/01/14 10:30:42;;;;;;;10.90;5.80;;;;;;;12.02;63.40;98858.68;104894;1257;99201;-67
2023/01/14 10:33:14;;;;;;;12.60;6.70;;;;;;;12.28;61.75;98854.23;105270;1250;98113;-67
2023/01/14 10:35:44;;;;;;;11.00;5.60;;;;;;;12.48;60.88;98848.67;105322;1257;111765;-67
2023/01/14 10:38:18;;;;;;;13.60;6.90;;;;;;;12.63;60.18;98849.13;105361;1254;99223;-68
2023/01/14 10:40:48;;;;;;;10.30;5.40;;;;;;;12.84;60.38;98850.60;105265;1254;108461;-68
2023/01/14 10:43:33;;;;;;;12.80;7.60;;;;;;;13.12;59.49;98849.11;105348;1254;97897;-68
2023/01/14 10:46:00;;;;;;;11.90;5.70;;;;;;;13.50;60.44;98843.77;105284;1254;98020;-67
2023/01/14 10:48:37;;;;;;;12.80;7.80;;;;;;;13.86;58.64;98840.39;105248;1251;111954;-67
2023/01/14 10:51:47;;;;;;;7.90;3.50;;;;;;;14.09;57.10;98841.96;105303;1254;99202;-68
2023/01/14 10:54:18;;;;;;;9.90;5.00;;;;;;;14.25;55.61;98839.17;104607;1264;108903;-67
2023/01/14 10:57:16;;;;;;;7.20;4.80;;;;;;;14.39;55.70;98836.10;104608;1259;98006;-68
2023/01/14 10:59:50;;;;;;;5.30;2.70;;;;;;;14.47;53.09;98828.48;104599;1264;99208;-67
2023/01/14 11:02:29;;;;;;;8.30;4.60;;;;;;;14.43;54.75;98823.82;104616;1260;112355;-67
2023/01/14 11:04:57;;;;;;;11.60;6.10;;;;;;;14.69;54.38;98827.66;104522;1266;99316;-67
2023/01/14 11:07:35;;;;;;;10.00;5.70;;;;;;;14.88;53.20;98834.35;104568;1264;108351;-67
2023/01/14 11:10:27;;;;;;;6.50;3.90;;;;;;;14.93;53.10;98835.41;104617;1263;98098;-67
2023/01/14 11:13:12;;;;;;;8.90;4.80;;;;;;;14.87;52.69;98837.56;104634;1265;97907;-67
2023/01/14 11:15:45;;;;;;;5.00;2.80;;;;;;;14.57;51.77;98836.02;104443;1274;113497;-67
2023/01/14 11:18:19;;;;;;;11.50;6.20;;;;;;;14.26;53.02;98829.61;104555;1263;99211;-69
2023/01/14 11:21:04;;;;;;;7.80;4.40;;;;;;;14.45;54.06;98823.08;104580;1260;108314;-70
2023/01/14 11:23:35;;;;;;;9.50;4.50;;;;;;;14.65;52.32;98820.11;104655;1264;98183;-67
2023/01/14 11:26:07;;;;;;;;;;;;;;;14.76;52.18;98821.13;104634;1264;98070;-67
2023/01/14 11:28:45;;;;;;;5.80;3.60;;;;;;;14.95;52.24;98820.89;104912;1264;112166;-67
2023/01/14 11:31:13;;;;;;;9.30;5.40;;;;;;;14.97;50.69;98817.97;105289;1254;99215;-69
2023/01/14 11:33:49;;;;;;;10.90;5.50;;;;;;;14.94;50.45;98821.34;105340;1251;108686;-67
2023/01/14 11:36:25;;;;;;;20.10;11.50;;;;;;;14.66;50.51;98823.29;105300;1255;98756;-67
2023/01/14 11:38:55;;;;;;;12.40;6.80;;;;;;;14.31;51.53;98819.80;105320;1254;97914;-67
2023/01/14 11:41:38;;;;;;;7.10;4.60;;;;;;;13.94;51.70;98814.11;105316;1254;111945;-67
2023/01/14 11:44:15;;;;;;;10.30;5.50;;;;;;;13.43;52.10;98817.58;105328;1255;99165;-68
2023/01/14 11:47:12;;;;;;;14.20;7.80;;;;;;;13.20;53.07;98816.77;105311;1257;107200;-68
2023/01/14 11:50:15;;;;;;;11.60;5.20;;;;;;;13.09;52.48;98811.67;105346;1254;97908;-68
2023/01/14 11:53:14;;;;;;;18.00;8.30;;;;;;;13.02;52.71;98807.73;105293;1251;97883;-67
2023/01/14 11:55:44;;;;;;;14.20;5.90;;;;;;;12.98;52.84;98797.58;105168;1254;112319;-67
2023/01/14 11:58:14;;;;;;;10.90;5.30;;;;;;;13.11;53.03;98790.47;105304;1251;99163;-67
2023/01/14 12:00:59;;;;;;;16.90;8.70;;;;;;;13.25;52.29;98786.64;105477;1264;108681;-67
2023/01/14 12:03:52;;;;;;;14.70;7.10;;;;;;;13.41;52.45;98790.44;105244;1257;97887;-67
2023/01/14 12:06:24;;;;;;;9.80;5.60;;;;;;;13.70;52.28;98786.35;105156;1251;99226;-68
2023/01/14 12:09:04;;;;;;;10.20;5.30;;;;;;;13.75;50.87;98785.85;105251;1254;111845;-67
2023/01/14 12:11:48;;;;;;;11.10;5.80;;;;;;;13.42;51.35;98788.59;105320;1251;99307;-67
2023/01/14 12:17:29;;;;;;;9.20;5.00;;;;;;;12.44;53.41;98800.42;105308;1266;97944;-68
2023/01/14 12:20:06;;;;;;;10.00;5.60;;;;;;;12.10;53.94;98788.91;105358;1254;98062;-67